sensor_id;sensor_type;location;lat;lon;timestamp;pressure;altitude;pressure_sealevel;temperature;humidity
71764;BME280;59602;52.142;5.408;2023-12-20T00:00:10;101677.31;;;7.06;100.00
71764;BME280;59602;52.142;5.408;2023-12-20T00:02:37;101667.97;;;7.04;100.00
71764;BME280;59602;52.142;5.408;2023-12-20T00:05:24;101661.44;;;7.05;100.00
71764;BME280;59602;52.142;5.408;2023-12-20T00:07:55;101662.44;;;7.00;100.00
71764;BME280;59602;52.142;5.408;2023-12-20T00:10:23;101658.50;;;6.98;100.00
71764;BME280;59602;52.142;5.408;2023-12-20T00:12:50;101654.69;;;6.99;100.00
71764;BME280;59602;52.142;5.408;2023-12-20T00:15:19;101658.03;;;6.96;100.00
71764;BME280;59602;52.142;5.408;2023-12-20T00:17:46;101658.72;;;6.93;100.00
71764;BME280;59602;52.142;5.408;2023-12-20T00:20:14;101654.75;;;6.90;100.00
71764;BME280;59602;52.142;5.408;2023-12-20T00:22:41;101651.59;;;6.88;100.00
71764;BME280;59602;52.142;5.408;2023-12-20T00:25:08;101655.78;;;6.85;100.00
71764;BME280;59602;52.142;5.408;2023-12-20T00:27:49;101651.47;;;6.84;100.00
71764;BME280;59602;52.142;5.408;2023-12-20T00:30:18;101649.78;;;6.80;100.00
71764;BME280;59602;52.142;5.408;2023-12-20T00:32:48;101654.84;;;6.81;100.00
71764;BME280;59602;52.142;5.408;2023-12-20T00:35:21;101661.38;;;6.80;100.00
71764;BME280;59602;52.142;5.408;2023-12-20T00:37:48;101657.88;;;6.80;100.00
71764;BME280;59602;52.142;5.408;2023-12-20T00:40:15;101653.47;;;6.75;100.00
71764;BME280;59602;52.142;5.408;2023-12-20T00:42:52;101658.41;;;6.73;100.00
71764;BME280;59602;52.142;5.408;2023-12-20T00:45:19;101652.56;;;6.71;100.00
71764;BME280;59602;52.142;5.408;2023-12-20T00:47:46;101655.94;;;6.68;100.00
71764;BME280;59602;52.142;5.408;2023-12-20T00:50:14;101660.41;;;6.64;100.00
71764;BME280;59602;52.142;5.408;2023-12-20T00:52:49;101650.06;;;6.66;100.00
71764;BME280;59602;52.142;5.408;2023-12-20T00:55:21;101653.41;;;6.63;100.00
71764;BME280;59602;52.142;5.408;2023-12-20T00:57:49;101649.59;;;6.64;100.00
71764;BME280;59602;52.142;5.408;2023-12-20T01:00:16;101667.75;;;6.63;100.00
71764;BME280;59602;52.142;5.408;2023-12-20T01:02:43;101652.53;;;6.59;100.00
71764;BME280;59602;52.142;5.408;2023-12-20T01:05:10;101655.69;;;6.61;100.00
71764;BME280;59602;52.142;5.408;2023-12-20T01:07:38;101649.81;;;6.59;100.00
71764;BME280;59602;52.142;5.408;2023-12-20T01:10:09;101639.00;;;6.59;100.00
71764;BME280;59602;52.142;5.408;2023-12-20T01:12:36;101634.72;;;6.58;100.00
71764;BME280;59602;52.142;5.408;2023-12-20T01:15:04;101642.72;;;6.54;100.00
71764;BME280;59602;52.142;5.408;2023-12-20T01:17:30;101631.31;;;6.49;100.00
71764;BME280;59602;52.142;5.408;2023-12-20T01:20:00;101637.38;;;6.46;100.00
71764;BME280;59602;52.142;5.408;2023-12-20T01:22:27;101635.78;;;6.44;100.00
71764;BME280;59602;52.142;5.408;2023-12-20T01:24:55;101638.03;;;6.42;100.00
71764;BME280;59602;52.142;5.408;2023-12-20T01:27:29;101656.94;;;6.42;100.00
71764;BME280;59602;52.142;5.408;2023-12-20T01:29:58;101661.22;;;6.43;100.00
71764;BME280;59602;52.142;5.408;2023-12-20T01:32:26;101652.44;;;6.47;100.00
71764;BME280;59602;52.142;5.408;2023-12-20T01:34:56;101657.53;;;6.48;100.00
71764;BME280;59602;52.142;5.408;2023-12-20T01:40:49;101663.66;;;6.57;100.00
71764;BME280;59602;52.142;5.408;2023-12-20T01:43:18;101658.25;;;6.57;100.00
71764;BME280;59602;52.142;5.408;2023-12-20T01:45:45;101652.06;;;6.57;100.00
71764;BME280;59602;52.142;5.408;2023-12-20T01:48:13;101644.28;;;6.55;100.00
71764;BME280;59602;52.142;5.408;2023-12-20T01:50:41;101640.78;;;6.55;100.00
71764;BME280;59602;52.142;5.408;2023-12-20T01:53:11;101645.53;;;6.58;100.00
71764;BME280;59602;52.142;5.408;2023-12-20T01:55:40;101643.28;;;6.60;100.00
71764;BME280;59602;52.142;5.408;2023-12-20T01:58:09;101651.84;;;6.62;100.00
71764;BME280;59602;52.142;5.408;2023-12-20T02:00:37;101643.75;;;6.62;100.00
71764;BME280;59602;52.142;5.408;2023-12-20T02:03:04;101643.75;;;6.62;100.00
71764;BME280;59602;52.142;5.408;2023-12-20T02:05:35;101640.56;;;6.60;100.00
71764;BME280;59602;52.142;5.408;2023-12-20T02:08:02;101648.53;;;6.56;100.00
71764;BME280;59602;52.142;5.408;2023-12-20T02:10:29;101644.75;;;6.57;100.00
71764;BME280;59602;52.142;5.408;2023-12-20T02:12:56;101643.97;;;6.57;100.00
71764;BME280;59602;52.142;5.408;2023-12-20T02:15:24;101645.06;;;6.56;100.00
71764;BME280;59602;52.142;5.408;2023-12-20T02:17:51;101648.22;;;6.58;100.00
71764;BME280;59602;52.142;5.408;2023-12-20T02:20:17;101639.47;;;6.61;100.00
71764;BME280;59602;52.142;5.408;2023-12-20T02:22:44;101636.41;;;6.62;100.00
71764;BME280;59602;52.142;5.408;2023-12-20T02:25:12;101631.00;;;6.62;100.00
71764;BME280;59602;52.142;5.408;2023-12-20T02:27:39;101636.41;;;6.62;100.00
71764;BME280;59602;52.142;5.408;2023-12-20T02:30:06;101639.47;;;6.61;100.00
71764;BME280;59602;52.142;5.408;2023-12-20T02:32:33;101631.00;;;6.62;100.00
71764;BME280;59602;52.142;5.408;2023-12-20T02:35:00;101628.66;;;6.61;100.00
71764;BME280;59602;52.142;5.408;2023-12-20T02:37:27;101630.56;;;6.60;100.00
71764;BME280;59602;52.142;5.408;2023-12-20T02:39:54;101636.56;;;6.66;100.00
71764;BME280;59602;52.142;5.408;2023-12-20T02:42:22;101636.22;;;6.68;100.00
71764;BME280;59602;52.142;5.408;2023-12-20T02:44:49;101627.44;;;6.71;100.00
71764;BME280;59602;52.142;5.408;2023-12-20T02:47:17;101623.59;;;6.72;100.00
71764;BME280;59602;52.142;5.408;2023-12-20T02:49:44;101613.94;;;6.71;100.00
71764;BME280;59602;52.142;5.408;2023-12-20T02:52:12;101622.19;;;6.74;100.00
71764;BME280;59602;52.142;5.408;2023-12-20T02:54:39;101614.84;;;6.75;100.00
71764;BME280;59602;52.142;5.408;2023-12-20T02:57:06;101615.63;;;6.75;100.00
71764;BME280;59602;52.142;5.408;2023-12-20T02:59:33;101606.38;;;6.76;100.00
71764;BME280;59602;52.142;5.408;2023-12-20T03:02:00;101605.50;;;6.72;100.00
71764;BME280;59602;52.142;5.408;2023-12-20T03:04:27;101603.25;;;6.74;100.00
71764;BME280;59602;52.142;5.408;2023-12-20T03:06:54;101603.59;;;6.73;100.00
71764;BME280;59602;52.142;5.408;2023-12-20T03:09:21;101609.44;;;6.75;100.00
71764;BME280;59602;52.142;5.408;2023-12-20T03:11:48;101607.53;;;6.75;100.00
71764;BME280;59602;52.142;5.408;2023-12-20T03:14:17;101604.50;;;6.77;100.00
71764;BME280;59602;52.142;5.408;2023-12-20T03:16:49;101606.06;;;6.78;100.00
71764;BME280;59602;52.142;5.408;2023-12-20T03:19:18;101603.38;;;6.78;100.00
71764;BME280;59602;52.142;5.408;2023-12-20T03:21:46;101604.16;;;6.78;100.00
71764;BME280;59602;52.142;5.408;2023-12-20T03:24:14;101598.41;;;6.80;100.00
71764;BME280;59602;52.142;5.408;2023-12-20T03:26:42;101585.22;;;6.78;100.00
71764;BME280;59602;52.142;5.408;2023-12-20T03:29:12;101583.19;;;6.75;100.00
71764;BME280;59602;52.142;5.408;2023-12-20T03:34:14;101581.06;;;6.81;100.00
71764;BME280;59602;52.142;5.408;2023-12-20T03:36:47;101587.28;;;6.81;100.00
71764;BME280;59602;52.142;5.408;2023-12-20T03:39:14;101586.13;;;6.82;100.00
71764;BME280;59602;52.142;5.408;2023-12-20T03:41:41;101589.75;;;6.86;100.00
71764;BME280;59602;52.142;5.408;2023-12-20T03:44:08;101587.50;;;6.89;100.00
71764;BME280;59602;52.142;5.408;2023-12-20T03:46:40;101589.06;;;6.90;100.00
71764;BME280;59602;52.142;5.408;2023-12-20T03:49:09;101588.75;;;6.91;100.00
71764;BME280;59602;52.142;5.408;2023-12-20T03:51:37;101600.03;;;6.93;100.00
71764;BME280;59602;52.142;5.408;2023-12-20T03:54:14;101601.16;;;6.92;100.00
71764;BME280;59602;52.142;5.408;2023-12-20T03:56:41;101598.44;;;6.92;100.00
71764;BME280;59602;52.142;5.408;2023-12-20T03:59:11;101592.69;;;6.94;100.00
71764;BME280;59602;52.142;5.408;2023-12-20T04:01:38;101577.94;;;6.91;100.00
71764;BME280;59602;52.142;5.408;2023-12-20T04:04:04;101587.19;;;6.90;100.00
71764;BME280;59602;52.142;5.408;2023-12-20T04:06:41;101591.13;;;6.93;100.00
71764;BME280;59602;52.142;5.408;2023-12-20T04:09:08;101584.94;;;6.92;100.00
71764;BME280;59602;52.142;5.408;2023-12-20T04:11:36;101586.03;;;6.91;100.00
71764;BME280;59602;52.142;5.408;2023-12-20T04:14:23;101588.88;;;6.95;100.00
71764;BME280;59602;52.142;5.408;2023-12-20T04:16:52;101575.81;;;6.97;100.00
71764;BME280;59602;52.142;5.408;2023-12-20T04:19:19;101570.88;;;6.99;100.00
71764;BME280;59602;52.142;5.408;2023-12-20T04:21:47;101566.25;;;6.99;100.00
71764;BME280;59602;52.142;5.408;2023-12-20T04:24:14;101578.63;;;7.00;100.00
71764;BME280;59602;52.142;5.408;2023-12-20T04:26:41;101569.03;;;7.03;100.00
71764;BME280;59602;52.142;5.408;2023-12-20T04:29:22;101578.41;;;7.05;100.00
71764;BME280;59602;52.142;5.408;2023-12-20T04:31:53;101584.63;;;7.06;100.00
71764;BME280;59602;52.142;5.408;2023-12-20T04:34:32;101575.50;;;7.11;100.00
71764;BME280;59602;52.142;5.408;2023-12-20T04:37:01;101582.47;;;7.12;100.00
71764;BME280;59602;52.142;5.408;2023-12-20T04:39:30;101585.94;;;7.12;100.00
71764;BME280;59602;52.142;5.408;2023-12-20T04:42:10;101582.59;;;7.15;100.00
71764;BME280;59602;52.142;5.408;2023-12-20T04:44:44;101579.19;;;7.18;100.00
71764;BME280;59602;52.142;5.408;2023-12-20T04:47:20;101573.34;;;7.16;100.00
71764;BME280;59602;52.142;5.408;2023-12-20T04:49:48;101573.78;;;7.18;100.00
71764;BME280;59602;52.142;5.408;2023-12-20T04:52:16;101573.91;;;7.22;100.00
71764;BME280;59602;52.142;5.408;2023-12-20T04:54:43;101567.34;;;7.23;100.00
71764;BME280;59602;52.142;5.408;2023-12-20T04:57:28;101575.94;;;7.25;100.00
71764;BME280;59602;52.142;5.408;2023-12-20T05:00:00;101558.91;;;7.24;100.00
71764;BME280;59602;52.142;5.408;2023-12-20T05:02:27;101555.88;;;7.26;100.00
71764;BME280;59602;52.142;5.408;2023-12-20T05:05:04;101557.44;;;7.27;100.00
71764;BME280;59602;52.142;5.408;2023-12-20T05:07:31;101562.53;;;7.28;100.00
71764;BME280;59602;52.142;5.408;2023-12-20T05:10:04;101566.34;;;7.27;100.00
71764;BME280;59602;52.142;5.408;2023-12-20T05:12:31;101565.22;;;7.28;100.00
71764;BME280;59602;52.142;5.408;2023-12-20T05:14:59;101570.75;;;7.32;100.00
71764;BME280;59602;52.142;5.408;2023-12-20T05:17:32;101565.00;;;7.34;100.00
71764;BME280;59602;52.142;5.408;2023-12-20T05:20:01;101571.19;;;7.34;100.00
71764;BME280;59602;52.142;5.408;2023-12-20T05:22:28;101573.56;;;7.36;100.00
71764;BME280;59602;52.142;5.408;2023-12-20T05:24:55;101568.59;;;7.38;100.00
71764;BME280;59602;52.142;5.408;2023-12-20T05:27:26;101573.56;;;7.36;100.00
71764;BME280;59602;52.142;5.408;2023-12-20T05:30:09;101566.69;;;7.38;100.00
71764;BME280;59602;52.142;5.408;2023-12-20T05:32:36;101572.09;;;7.38;100.00
71764;BME280;59602;52.142;5.408;2023-12-20T05:35:06;101571.31;;;7.38;100.00
71764;BME280;59602;52.142;5.408;2023-12-20T05:37:33;101578.28;;;7.39;100.00
71764;BME280;59602;52.142;5.408;2023-12-20T05:40:00;101573.22;;;7.37;100.00
71764;BME280;59602;52.142;5.408;2023-12-20T05:42:27;101567.81;;;7.37;100.00
71764;BME280;59602;52.142;5.408;2023-12-20T05:44:53;101563.19;;;7.38;100.00
71764;BME280;59602;52.142;5.408;2023-12-20T05:47:24;101563.66;;;7.40;100.00
71764;BME280;59602;52.142;5.408;2023-12-20T05:49:51;101562.88;;;7.39;100.00
71764;BME280;59602;52.142;5.408;2023-12-20T05:52:27;101572.88;;;7.39;100.00
71764;BME280;59602;52.142;5.408;2023-12-20T05:55:11;101567.91;;;7.41;100.00
71764;BME280;59602;52.142;5.408;2023-12-20T05:57:40;101576.84;;;7.41;100.00
71764;BME280;59602;52.142;5.408;2023-12-20T06:00:13;101565.66;;;7.43;100.00
71764;BME280;59602;52.142;5.408;2023-12-20T06:02:40;101564.56;;;7.44;100.00
71764;BME280;59602;52.142;5.408;2023-12-20T06:05:07;101568.03;;;7.44;100.00
71764;BME280;59602;52.142;5.408;2023-12-20T06:07:34;101569.16;;;7.43;100.00
71764;BME280;59602;52.142;5.408;2023-12-20T06:10:23;101565.34;;;7.44;100.00
71764;BME280;59602;52.142;5.408;2023-12-20T06:12:59;101562.63;;;7.44;100.00
71764;BME280;59602;52.142;5.408;2023-12-20T06:15:30;101559.59;;;7.46;100.00
71764;BME280;59602;52.142;5.408;2023-12-20T06:18:00;101561.16;;;7.47;100.00
71764;BME280;59602;52.142;5.408;2023-12-20T06:20:27;101556.53;;;7.47;100.00
71764;BME280;59602;52.142;5.408;2023-12-20T06:22:54;101556.53;;;7.47;100.00
71764;BME280;59602;52.142;5.408;2023-12-20T06:25:21;101551.13;;;7.47;100.00
71764;BME280;59602;52.142;5.408;2023-12-20T06:27:48;101549.22;;;7.48;100.00
71764;BME280;59602;52.142;5.408;2023-12-20T06:30:21;101554.28;;;7.49;100.00
71764;BME280;59602;52.142;5.408;2023-12-20T06:32:48;101557.75;;;7.50;100.00
71764;BME280;59602;52.142;5.408;2023-12-20T06:35:15;101562.38;;;7.49;100.00
71764;BME280;59602;52.142;5.408;2023-12-20T06:37:45;101544.22;;;7.50;100.00
71764;BME280;59602;52.142;5.408;2023-12-20T06:40:12;101548.19;;;7.53;100.00
71764;BME280;59602;52.142;5.408;2023-12-20T06:42:44;101549.31;;;7.52;100.00
71764;BME280;59602;52.142;5.408;2023-12-20T06:45:24;101549.75;;;7.54;100.00
71764;BME280;59602;52.142;5.408;2023-12-20T06:47:51;101554.47;;;7.57;100.00
71764;BME280;59602;52.142;5.408;2023-12-20T06:50:18;101550.66;;;7.58;100.00
71764;BME280;59602;52.142;5.408;2023-12-20T06:52:44;101535.22;;;7.58;100.00
71764;BME280;59602;52.142;5.408;2023-12-20T06:55:11;101547.63;;;7.59;100.00
71764;BME280;59602;52.142;5.408;2023-12-20T06:57:38;101543.00;;;7.60;100.00
71764;BME280;59602;52.142;5.408;2023-12-20T07:00:05;101545.38;;;7.61;100.00
71764;BME280;59602;52.142;5.408;2023-12-20T07:02:32;101539.16;;;7.61;100.00
71764;BME280;59602;52.142;5.408;2023-12-20T07:04:59;101539.16;;;7.61;100.00
71764;BME280;59602;52.142;5.408;2023-12-20T07:07:26;101540.75;;;7.62;100.00
71764;BME280;59602;52.142;5.408;2023-12-20T07:09:53;101543.06;;;7.63;100.00
71764;BME280;59602;52.142;5.408;2023-12-20T07:12:20;101542.75;;;7.65;100.00
71764;BME280;59602;52.142;5.408;2023-12-20T07:14:47;101543.53;;;7.65;100.00
71764;BME280;59602;52.142;5.408;2023-12-20T07:17:13;101540.50;;;7.67;100.00
71764;BME280;59602;52.142;5.408;2023-12-20T07:19:42;101527.75;;;7.67;100.00
71764;BME280;59602;52.142;5.408;2023-12-20T07:22:09;101542.88;;;7.68;100.00
71764;BME280;59602;52.142;5.408;2023-12-20T07:24:36;101536.31;;;7.69;100.00
71764;BME280;59602;52.142;5.408;2023-12-20T07:27:09;101525.47;;;7.69;100.00
71764;BME280;59602;52.142;5.408;2023-12-20T07:29:37;101532.47;;;7.71;100.00
71764;BME280;59602;52.142;5.408;2023-12-20T07:32:04;101533.25;;;7.71;100.00
71764;BME280;59602;52.142;5.408;2023-12-20T07:34:31;101538.34;;;7.73;100.00
71764;BME280;59602;52.142;5.408;2023-12-20T07:37:01;101519.72;;;7.71;100.00
71764;BME280;59602;52.142;5.408;2023-12-20T07:39:39;101520.50;;;7.72;100.00
71764;BME280;59602;52.142;5.408;2023-12-20T07:42:08;101526.72;;;7.72;100.00
71764;BME280;59602;52.142;5.408;2023-12-20T07:44:35;101520.97;;;7.74;100.00
71764;BME280;59602;52.142;5.408;2023-12-20T07:47:06;101523.34;;;7.75;100.00
71764;BME280;59602;52.142;5.408;2023-12-20T07:49:32;101533.03;;;7.76;100.00
71764;BME280;59602;52.142;5.408;2023-12-20T07:51:59;101542.72;;;7.77;100.00
71764;BME280;59602;52.142;5.408;2023-12-20T07:54:26;101538.09;;;7.78;100.00
71764;BME280;59602;52.142;5.408;2023-12-20T07:56:53;101545.88;;;7.79;100.00
71764;BME280;59602;52.142;5.408;2023-12-20T07:59:20;101555.56;;;7.80;100.00
71764;BME280;59602;52.142;5.408;2023-12-20T08:01:58;101557.50;;;7.80;100.00
71764;BME280;59602;52.142;5.408;2023-12-20T08:04:25;101548.69;;;7.83;100.00
71764;BME280;59602;52.142;5.408;2023-12-20T08:06:52;101562.22;;;7.83;100.00
71764;BME280;59602;52.142;5.408;2023-12-20T08:09:22;101567.63;;;7.83;100.00
71764;BME280;59602;52.142;5.408;2023-12-20T08:11:48;101570.00;;;7.84;100.00
71764;BME280;59602;52.142;5.408;2023-12-20T08:14:15;101564.25;;;7.86;100.00
71764;BME280;59602;52.142;5.408;2023-12-20T08:16:50;101568.53;;;7.87;100.00
71764;BME280;59602;52.142;5.408;2023-12-20T08:19:17;101566.59;;;7.87;100.00
71764;BME280;59602;52.142;5.408;2023-12-20T08:21:44;101560.06;;;7.88;100.00
71764;BME280;59602;52.142;5.408;2023-12-20T08:24:10;101551.94;;;7.88;100.00
71764;BME280;59602;52.142;5.408;2023-12-20T08:26:37;101555.09;;;7.90;100.00
71764;BME280;59602;52.142;5.408;2023-12-20T08:29:04;101546.97;;;7.90;100.00
71764;BME280;59602;52.142;5.408;2023-12-20T08:31:31;101556.66;;;7.92;100.00
71764;BME280;59602;52.142;5.408;2023-12-20T08:33:58;101557.13;;;7.94;100.00
71764;BME280;59602;52.142;5.408;2023-12-20T08:36:24;101546.28;;;7.94;100.00
71764;BME280;59602;52.142;5.408;2023-12-20T08:38:51;101541.66;;;7.94;100.00
71764;BME280;59602;52.142;5.408;2023-12-20T08:41:18;101547.06;;;7.94;100.00
71764;BME280;59602;52.142;5.408;2023-12-20T08:43:47;101538.94;;;7.94;100.00
71764;BME280;59602;52.142;5.408;2023-12-20T08:46:14;101550.56;;;7.95;100.00
71764;BME280;59602;52.142;5.408;2023-12-20T08:48:42;101544.81;;;7.96;100.00
71764;BME280;59602;52.142;5.408;2023-12-20T08:51:10;101542.88;;;7.97;100.00
71764;BME280;59602;52.142;5.408;2023-12-20T08:53:36;101542.44;;;7.95;100.00
71764;BME280;59602;52.142;5.408;2023-12-20T08:56:03;101542.44;;;7.95;100.00
71764;BME280;59602;52.142;5.408;2023-12-20T08:58:30;101540.88;;;7.94;100.00
71764;BME280;59602;52.142;5.408;2023-12-20T09:01:00;101548.22;;;7.93;100.00
71764;BME280;59602;52.142;5.408;2023-12-20T09:03:27;101555.56;;;7.93;100.00
71764;BME280;59602;52.142;5.408;2023-12-20T09:05:54;101553.19;;;7.91;100.00
71764;BME280;59602;52.142;5.408;2023-12-20T09:08:20;101544.59;;;7.89;100.00
71764;BME280;59602;52.142;5.408;2023-12-20T09:10:48;101548.53;;;7.92;100.00
71764;BME280;59602;52.142;5.408;2023-12-20T09:13:15;101546.97;;;7.90;100.00
71764;BME280;59602;52.142;5.408;2023-12-20T09:15:42;101534.91;;;7.88;100.00
71764;BME280;59602;52.142;5.408;2023-12-20T09:18:09;101539.97;;;7.89;100.00
71764;BME280;59602;52.142;5.408;2023-12-20T09:20:52;101545.06;;;7.91;100.00
71764;BME280;59602;52.142;5.408;2023-12-20T09:23:38;101543.81;;;7.88;100.00
71764;BME280;59602;52.142;5.408;2023-12-20T09:26:39;101542.25;;;7.87;100.00
71764;BME280;59602;52.142;5.408;2023-12-20T09:29:09;101536.50;;;7.89;100.00
71764;BME280;59602;52.142;5.408;2023-12-20T09:31:52;101530.75;;;7.90;100.00
71764;BME280;59602;52.142;5.408;2023-12-20T09:34:20;101541.66;;;7.94;100.00
71764;BME280;59602;52.142;5.408;2023-12-20T09:36:47;101537.91;;;7.99;100.00
71764;BME280;59602;52.142;5.408;2023-12-20T09:39:16;101535.31;;;8.02;100.00
71764;BME280;59602;52.142;5.408;2023-12-20T09:42:03;101538.91;;;8.06;100.00
71764;BME280;59602;52.142;5.408;2023-12-20T09:44:33;101542.06;;;8.08;100.00
71764;BME280;59602;52.142;5.408;2023-12-20T09:49:53;101556.13;;;8.14;100.00
71764;BME280;59602;52.142;5.408;2023-12-20T09:52:24;101554.66;;;8.17;100.00
71764;BME280;59602;52.142;5.408;2023-12-20T09:54:53;101554.44;;;8.22;100.00
71764;BME280;59602;52.142;5.408;2023-12-20T09:57:21;101545.59;;;8.25;100.00
71764;BME280;59602;52.142;5.408;2023-12-20T09:59:48;101537.91;;;8.27;100.00
71764;BME280;59602;52.142;5.408;2023-12-20T10:02:17;101551.91;;;8.29;100.00
71764;BME280;59602;52.142;5.408;2023-12-20T10:04:47;101560.03;;;8.29;100.00
71764;BME280;59602;52.142;5.408;2023-12-20T10:07:15;101554.69;;;8.32;100.00
71764;BME280;59602;52.142;5.408;2023-12-20T10:09:42;101550.94;;;8.37;100.00
71764;BME280;59602;52.142;5.408;2023-12-20T10:12:13;101566.09;;;8.38;100.00
71764;BME280;59602;52.142;5.408;2023-12-20T10:14:40;101557.63;;;8.40;100.00
71764;BME280;59602;52.142;5.408;2023-12-20T10:17:09;101560.00;;;8.41;100.00
71764;BME280;59602;52.142;5.408;2023-12-20T10:19:38;101561.59;;;8.42;100.00
71764;BME280;59602;52.142;5.408;2023-12-20T10:22:08;101551.53;;;8.43;100.00
71764;BME280;59602;52.142;5.408;2023-12-20T10:24:36;101560.09;;;8.45;100.00
71764;BME280;59602;52.142;5.408;2023-12-20T10:27:04;101560.88;;;8.45;100.00
71764;BME280;59602;52.142;5.408;2023-12-20T10:29:35;101555.13;;;8.47;100.00
71764;BME280;59602;52.142;5.408;2023-12-20T10:32:25;101549.78;;;8.50;100.00
71764;BME280;59602;52.142;5.408;2023-12-20T10:34:55;101544.47;;;8.54;100.00
71764;BME280;59602;52.142;5.408;2023-12-20T10:37:31;101548.75;;;8.55;100.00
71764;BME280;59602;52.142;5.408;2023-12-20T10:40:03;101539.47;;;8.56;100.00
71764;BME280;59602;52.142;5.408;2023-12-20T10:42:35;101534.06;;;8.56;100.00
71764;BME280;59602;52.142;5.408;2023-12-20T10:45:08;101535.63;;;8.57;100.00
71764;BME280;59602;52.142;5.408;2023-12-20T10:47:57;101540.81;;;8.62;100.00
71764;BME280;59602;52.142;5.408;2023-12-20T10:50:33;101523.41;;;8.63;100.00
71764;BME280;59602;52.142;5.408;2023-12-20T10:53:06;101537.72;;;8.64;100.00
71764;BME280;59602;52.142;5.408;2023-12-20T10:55:33;101518.75;;;8.64;100.00
71764;BME280;59602;52.142;5.408;2023-12-20T10:58:01;101520.34;;;8.65;100.00
71764;BME280;59602;52.142;5.408;2023-12-20T11:00:32;101525.84;;;8.68;100.00
71764;BME280;59602;52.142;5.408;2023-12-20T11:03:00;101526.28;;;8.70;100.00
71764;BME280;59602;52.142;5.408;2023-12-20T11:05:58;101528.75;;;8.76;100.00
71764;BME280;59602;52.142;5.408;2023-12-20T11:12:08;101515.69;;;8.81;100.00
71764;BME280;59602;52.142;5.408;2023-12-20T11:15:05;101514.22;;;8.84;100.00
71764;BME280;59602;52.142;5.408;2023-12-20T11:17:33;101505.38;;;8.87;100.00
71764;BME280;59602;52.142;5.408;2023-12-20T11:20:06;101519.03;;;8.90;100.00
71764;BME280;59602;52.142;5.408;2023-12-20T11:22:52;101507.81;;;8.92;100.00
71764;BME280;59602;52.142;5.408;2023-12-20T11:25:20;101498.97;;;8.95;100.00
71764;BME280;59602;52.142;5.408;2023-12-20T11:28:16;101484.56;;;8.91;100.00
71764;BME280;59602;52.142;5.408;2023-12-20T11:31:43;101488.06;;;8.91;100.00
71764;BME280;59602;52.142;5.408;2023-12-20T11:37:29;101494.59;;;9.06;100.00
71764;BME280;59602;52.142;5.408;2023-12-20T11:41:02;101489.25;;;9.10;100.00
71764;BME280;59602;52.142;5.408;2023-12-20T11:44:12;101483.47;;;9.11;100.00
71764;BME280;59602;52.142;5.408;2023-12-20T11:46:46;101484.59;;;9.10;100.00
71764;BME280;59602;52.142;5.408;2023-12-20T11:55:28;101458.78;;;9.17;99.91
71764;BME280;59602;52.142;5.408;2023-12-20T11:58:03;101459.13;;;9.15;98.95
71764;BME280;59602;52.142;5.408;2023-12-20T12:00:36;101461.16;;;9.18;98.21
71764;BME280;59602;52.142;5.408;2023-12-20T12:03:18;101462.38;;;9.21;98.97
71764;BME280;59602;52.142;5.408;2023-12-20T12:05:48;101468.22;;;9.23;99.17
71764;BME280;59602;52.142;5.408;2023-12-20T12:08:20;101464.75;;;9.22;98.61
71764;BME280;59602;52.142;5.408;2023-12-20T12:10:48;101474.00;;;9.21;98.54
71764;BME280;59602;52.142;5.408;2023-12-20T12:13:15;101463.50;;;9.20;98.29
71764;BME280;59602;52.142;5.408;2023-12-20T12:15:47;101473.22;;;9.21;98.16
71764;BME280;59602;52.142;5.408;2023-12-20T12:18:16;101475.50;;;9.19;98.10
71764;BME280;59602;52.142;5.408;2023-12-20T12:20:43;101475.50;;;9.19;98.35
71764;BME280;59602;52.142;5.408;2023-12-20T12:25:54;101466.63;;;9.22;98.36
71764;BME280;59602;52.142;5.408;2023-12-20T12:28:26;101463.25;;;9.25;98.76
71764;BME280;59602;52.142;5.408;2023-12-20T12:30:58;101450.44;;;9.25;98.12
71764;BME280;59602;52.142;5.408;2023-12-20T12:33:28;101443.88;;;9.26;98.37
71764;BME280;59602;52.142;5.408;2023-12-20T12:36:08;101445.81;;;9.26;98.28
71764;BME280;59602;52.142;5.408;2023-12-20T12:38:49;101442.31;;;9.25;98.83
71764;BME280;59602;52.142;5.408;2023-12-20T12:41:19;101441.16;;;9.26;98.85
71764;BME280;59602;52.142;5.408;2023-12-20T12:43:48;101439.69;;;9.29;98.98
71764;BME280;59602;52.142;5.408;2023-12-20T12:46:15;101431.88;;;9.27;98.78
71764;BME280;59602;52.142;5.408;2023-12-20T12:48:57;101427.97;;;9.25;98.63
71764;BME280;59602;52.142;5.408;2023-12-20T12:51:28;101431.81;;;9.24;99.06
71764;BME280;59602;52.142;5.408;2023-12-20T12:53:58;101434.09;;;9.22;98.79
71764;BME280;59602;52.142;5.408;2023-12-20T12:56:25;101425.16;;;9.21;98.64
71764;BME280;59602;52.142;5.408;2023-12-20T12:58:54;101420.88;;;9.20;99.20
71764;BME280;59602;52.142;5.408;2023-12-20T13:01:21;101423.22;;;9.22;99.31
71764;BME280;59602;52.142;5.408;2023-12-20T13:03:48;101417.81;;;9.22;99.68
71764;BME280;59602;52.142;5.408;2023-12-20T13:06:15;101409.22;;;9.20;99.53
71764;BME280;59602;52.142;5.408;2023-12-20T13:08:41;101405.75;;;9.19;99.41
71764;BME280;59602;52.142;5.408;2023-12-20T13:11:08;101402.25;;;9.19;98.96
71764;BME280;59602;52.142;5.408;2023-12-20T13:13:35;101403.41;;;9.18;99.28
71764;BME280;59602;52.142;5.408;2023-12-20T13:16:03;101398.75;;;9.18;99.40
71764;BME280;59602;52.142;5.408;2023-12-20T13:18:30;101403.41;;;9.18;99.46
71764;BME280;59602;52.142;5.408;2023-12-20T13:20:57;101390.97;;;9.17;99.86
71764;BME280;59602;52.142;5.408;2023-12-20T13:23:25;101385.09;;;9.14;99.43
71764;BME280;59602;52.142;5.408;2023-12-20T13:25:52;101370.75;;;9.14;100.00
71764;BME280;59602;52.142;5.408;2023-12-20T13:28:19;101378.47;;;9.12;99.27
71764;BME280;59602;52.142;5.408;2023-12-20T13:30:47;101375.75;;;9.12;99.35